Time;durP1;ratioP1;P1;durP2;ratioP2;P2;SDS_P1;SDS_P2;PMS_P1;PMS_P2;Temp;Humidity;BMP_temperature;BMP_pressure;BME280_temperature;BME280_humidity;BME280_pressure;Samples;Min_cycle;Max_cycle;Signal;HPM_P1;HPM_P2
2021/05/13 00:01:21;;;;;;;4.45;1.83;;;12.10;99.90;;;;;;5094284;28;20467;-78
2021/05/13 00:03:49;;;;;;;4.95;1.90;;;12.10;99.90;;;;;;5111999;28;20069;-79
2021/05/13 00:06:16;;;;;;;4.70;2.30;;;12.20;99.90;;;;;;5111913;28;20134;-78
2021/05/13 00:08:43;;;;;;;4.47;2.00;;;12.20;99.90;;;;;;5093752;28;20071;-77
2021/05/13 00:11:10;;;;;;;4.45;1.90;;;12.20;99.90;;;;;;5111821;28;20493;-78
2021/05/13 00:13:40;;;;;;;6.30;2.13;;;12.30;99.90;;;;;;5112260;28;20134;-79
2021/05/13 00:16:07;;;;;;;5.85;1.88;;;12.30;99.90;;;;;;5111581;28;20528;-78
2021/05/13 00:18:35;;;;;;;4.70;2.00;;;12.30;99.90;;;;;;5106428;28;20162;-77
2021/05/13 00:21:01;;;;;;;5.85;2.03;;;12.30;99.90;;;;;;5111821;28;20580;-78
2021/05/13 00:23:28;;;;;;;4.32;1.85;;;12.30;99.90;;;;;;5094087;28;20043;-79
2021/05/13 00:25:55;;;;;;;5.80;2.08;;;12.30;99.90;;;;;;5111723;28;20155;-76
2021/05/13 00:28:22;;;;;;;7.45;2.05;;;12.20;99.90;;;;;;5111845;28;20565;-79
2021/05/13 00:30:49;;;;;;;4.65;1.80;;;12.20;99.90;;;;;;5110979;28;20102;-79
2021/05/13 00:33:16;;;;;;;5.78;1.80;;;12.20;99.90;;;;;;5111237;28;20047;-77
2021/05/13 00:35:44;;;;;;;6.07;2.35;;;12.20;99.90;;;;;;5111061;28;20048;-77
2021/05/13 00:38:10;;;;;;;5.00;2.10;;;12.20;99.90;;;;;;5112166;28;20090;-77
2021/05/13 00:40:37;;;;;;;4.18;1.80;;;12.20;99.90;;;;;;5111939;28;20126;-78
2021/05/13 00:43:04;;;;;;;5.60;2.00;;;12.30;99.90;;;;;;5114140;28;20143;-78
2021/05/13 00:45:31;;;;;;;5.20;1.77;;;12.20;99.90;;;;;;5115046;28;20134;-78
2021/05/13 00:48:05;;;;;;;4.40;1.80;;;12.20;99.90;;;;;;5113887;28;20505;-77
2021/05/13 00:50:34;;;;;;;4.75;2.10;;;12.20;99.90;;;;;;5114662;28;20055;-77
2021/05/13 00:53:08;;;;;;;5.22;2.25;;;12.20;99.90;;;;;;5114278;28;20147;-79
2021/05/13 00:55:36;;;;;;;4.30;2.10;;;12.20;99.90;;;;;;5114298;28;20044;-78
2021/05/13 00:58:02;;;;;;;7.40;2.42;;;12.20;99.90;;;;;;5114794;28;20079;-76
2021/05/13 01:00:40;;;;;;;5.70;2.00;;;12.20;99.90;;;;;;5114013;28;20055;-77
2021/05/13 01:03:08;;;;;;;4.18;2.22;;;12.20;99.90;;;;;;5113900;28;20075;-78
2021/05/13 01:05:37;;;;;;;4.70;1.90;;;12.20;99.90;;;;;;5114071;28;20100;-78
2021/05/13 01:08:06;;;;;;;4.50;2.10;;;12.10;99.90;;;;;;5114110;28;20082;-78
2021/05/13 01:10:34;;;;;;;4.22;2.60;;;12.10;99.90;;;;;;5114071;28;20518;-78
2021/05/13 01:13:05;;;;;;;4.55;2.45;;;12.10;99.90;;;;;;5113686;28;20058;-79
2021/05/13 01:15:38;;;;;;;5.40;2.65;;;12.10;99.90;;;;;;5113761;28;20048;-78
2021/05/13 01:18:09;;;;;;;6.15;2.88;;;12.00;99.90;;;;;;5113856;28;20070;-77
2021/05/13 01:20:36;;;;;;;5.93;2.80;;;12.00;99.90;;;;;;5112969;28;20131;-78
2021/05/13 01:23:07;;;;;;;5.45;2.70;;;12.00;99.90;;;;;;5113940;28;20078;-79
2021/05/13 01:25:43;;;;;;;5.20;2.60;;;12.00;99.90;;;;;;5113706;28;20058;-77
2021/05/13 01:28:10;;;;;;;6.88;2.40;;;11.90;99.90;;;;;;5113826;28;20191;-77
2021/05/13 01:30:37;;;;;;;3.92;2.08;;;11.90;99.90;;;;;;5113069;28;20071;-77
2021/05/13 01:33:04;;;;;;;5.43;2.45;;;11.90;99.90;;;;;;5113331;28;20044;-76
2021/05/13 01:35:31;;;;;;;7.68;2.58;;;11.90;99.90;;;;;;5113974;28;20123;-78
2021/05/13 01:38:07;;;;;;;7.22;2.13;;;11.90;99.90;;;;;;5113867;28;20463;-78
2021/05/13 01:40:35;;;;;;;6.07;2.58;;;12.00;99.90;;;;;;5113412;28;20109;-78
2021/05/13 01:43:01;;;;;;;5.32;2.40;;;12.00;99.90;;;;;;5114164;28;20453;-79
2021/05/13 01:45:28;;;;;;;7.45;2.50;;;12.00;99.90;;;;;;5113672;28;20082;-79
2021/05/13 01:48:01;;;;;;;5.47;2.60;;;11.90;99.90;;;;;;5112801;28;20143;-79
2021/05/13 01:50:30;;;;;;;5.25;2.60;;;12.00;99.90;;;;;;5113746;28;20044;-79
2021/05/13 01:52:58;;;;;;;4.55;2.30;;;12.00;99.90;;;;;;5113077;28;20123;-77
2021/05/13 01:55:26;;;;;;;5.05;2.40;;;11.90;99.90;;;;;;5113321;28;20138;-78
2021/05/13 01:57:53;;;;;;;4.25;2.17;;;11.90;99.90;;;;;;5113655;28;20488;-78
2021/05/13 02:00:20;;;;;;;4.82;2.65;;;12.00;99.90;;;;;;5097539;28;20078;-76
2021/05/13 02:02:48;;;;;;;6.30;2.10;;;12.00;99.90;;;;;;5113426;28;20093;-77
2021/05/13 02:05:15;;;;;;;4.70;2.35;;;11.90;99.90;;;;;;5113483;28;20044;-78
2021/05/13 02:07:42;;;;;;;5.00;2.33;;;11.90;99.90;;;;;;5113306;28;20079;-76
2021/05/13 02:10:11;;;;;;;5.00;2.08;;;11.90;99.90;;;;;;5113029;28;20134;-76
2021/05/13 02:12:39;;;;;;;5.18;2.30;;;12.00;99.90;;;;;;5113279;28;20063;-77
2021/05/13 02:15:09;;;;;;;5.90;2.28;;;11.90;99.90;;;;;;5095178;28;20043;-77
2021/05/13 02:17:36;;;;;;;4.20;2.10;;;12.00;99.90;;;;;;5112929;28;20126;-76
2021/05/13 02:20:05;;;;;;;4.15;2.25;;;12.00;99.90;;;;;;5112790;28;20079;-76
2021/05/13 02:22:31;;;;;;;4.70;2.10;;;11.90;99.90;;;;;;5112945;28;20074;-76
2021/05/13 02:24:58;;;;;;;5.22;2.53;;;12.00;99.90;;;;;;5094975;28;20131;-76
2021/05/13 02:27:25;;;;;;;5.32;2.38;;;11.90;99.90;;;;;;5113190;28;20108;-76
2021/05/13 02:29:52;;;;;;;4.38;2.20;;;11.90;99.90;;;;;;5112802;28;20078;-76
2021/05/13 02:32:19;;;;;;;4.97;2.17;;;11.90;99.90;;;;;;5098464;28;20040;-76
2021/05/13 02:34:46;;;;;;;3.80;1.90;;;11.90;99.90;;;;;;5117663;28;20405;-76
2021/05/13 02:37:12;;;;;;;5.03;2.03;;;11.90;99.90;;;;;;5116636;28;20557;-76
2021/05/13 02:39:39;;;;;;;4.30;2.15;;;12.00;99.90;;;;;;5116512;28;20135;-75
2021/05/13 02:42:06;;;;;;;4.72;1.90;;;12.00;99.90;;;;;;5103084;28;20471;-76
2021/05/13 02:44:33;;;;;;;5.00;2.10;;;11.90;99.90;;;;;;5116745;28;20522;-76
2021/05/13 02:47:00;;;;;;;4.80;2.10;;;11.80;99.90;;;;;;5116660;28;20060;-75
2021/05/13 02:49:27;;;;;;;3.08;1.80;;;11.80;99.90;;;;;;5117208;28;20078;-76
2021/05/13 02:51:53;;;;;;;3.92;1.80;;;11.70;99.90;;;;;;5116878;28;20205;-77
2021/05/13 02:54:20;;;;;;;4.35;1.90;;;11.70;99.90;;;;;;5116345;28;20108;-77
2021/05/13 02:56:47;;;;;;;4.68;1.90;;;11.70;99.90;;;;;;5117008;28;20083;-78
2021/05/13 02:59:15;;;;;;;4.10;1.80;;;11.70;99.90;;;;;;5117133;28;20476;-78
2021/05/13 03:01:41;;;;;;;3.83;1.73;;;11.70;99.90;;;;;;5116416;28;20149;-76
2021/05/13 03:04:09;;;;;;;4.85;2.13;;;11.70;99.90;;;;;;5114230;28;20445;-77
2021/05/13 03:06:37;;;;;;;3.60;1.70;;;11.70;99.90;;;;;;5114994;28;20082;-78
2021/05/13 03:09:05;;;;;;;4.55;1.90;;;11.70;99.90;;;;;;5113618;28;20054;-76
2021/05/13 03:11:32;;;;;;;4.57;1.98;;;11.70;99.90;;;;;;5114136;28;20051;-78
2021/05/13 03:14:02;;;;;;;4.30;2.00;;;11.80;99.90;;;;;;5113488;28;20067;-77
2021/05/13 03:16:29;;;;;;;7.03;2.00;;;11.70;99.90;;;;;;5113865;28;20074;-78
2021/05/13 03:18:57;;;;;;;3.92;1.85;;;11.80;99.90;;;;;;5096007;28;20055;-78
2021/05/13 03:21:29;;;;;;;4.18;1.70;;;11.80;99.90;;;;;;5113665;28;20131;-78
2021/05/13 03:23:59;;;;;;;4.03;2.20;;;11.80;99.90;;;;;;5110637;28;20052;-76
2021/05/13 03:26:41;;;;;;;3.60;1.70;;;11.70;99.90;;;;;;5113559;28;20062;-77
2021/05/13 03:29:08;;;;;;;4.15;2.00;;;11.70;99.90;;;;;;5113526;28;20040;-78
2021/05/13 03:31:35;;;;;;;4.10;1.70;;;11.70;99.90;;;;;;5095934;28;20524;-78
2021/05/13 03:34:02;;;;;;;3.83;1.70;;;11.60;99.90;;;;;;5113870;28;20439;-78
2021/05/13 03:36:31;;;;;;;4.30;1.90;;;11.60;99.90;;;;;;5112535;28;20078;-78
2021/05/13 03:38:57;;;;;;;5.03;1.63;;;11.60;99.90;;;;;;5113706;28;20405;-78
2021/05/13 03:41:24;;;;;;;3.35;1.77;;;11.60;99.90;;;;;;5113306;28;20892;-78
2021/05/13 03:43:50;;;;;;;4.75;1.92;;;11.60;99.90;;;;;;5112932;28;20544;-78
2021/05/13 03:46:17;;;;;;;5.13;1.83;;;11.60;99.90;;;;;;5112869;28;20136;-77
2021/05/13 03:48:44;;;;;;;4.35;1.65;;;11.60;99.90;;;;;;5113329;28;20138;-78
2021/05/13 03:51:10;;;;;;;3.22;1.80;;;11.60;99.90;;;;;;5113609;28;20581;-77
2021/05/13 03:53:39;;;;;;;4.47;1.85;;;11.60;99.90;;;;;;5113097;28;20088;-77
2021/05/13 03:56:06;;;;;;;4.95;1.73;;;11.60;99.90;;;;;;5112947;28;20051;-77
2021/05/13 03:58:36;;;;;;;5.30;2.10;;;11.60;99.90;;;;;;5113102;28;20125;-77
2021/05/13 04:01:10;;;;;;;4.30;2.20;;;11.60;99.90;;;;;;5114331;28;20044;-77
2021/05/13 04:03:37;;;;;;;6.05;2.15;;;11.60;99.90;;;;;;5115648;28;20048;-77
2021/05/13 04:06:04;;;;;;;3.67;1.88;;;11.60;99.90;;;;;;5115122;28;20107;-77
2021/05/13 04:08:31;;;;;;;4.82;2.10;;;11.60;99.90;;;;;;5115243;28;20075;-76
2021/05/13 04:10:59;;;;;;;4.50;2.00;;;11.60;99.90;;;;;;5115370;28;20085;-77
2021/05/13 04:13:26;;;;;;;4.03;1.70;;;11.60;99.90;;;;;;5115321;28;20071;-78
2021/05/13 04:15:53;;;;;;;4.32;1.88;;;11.60;99.90;;;;;;5115235;28;20052;-78
2021/05/13 04:18:20;;;;;;;4.25;1.80;;;11.60;99.90;;;;;;5107642;28;20401;-77
2021/05/13 04:20:47;;;;;;;3.40;1.60;;;11.50;99.90;;;;;;5114812;28;20127;-78
2021/05/13 04:23:14;;;;;;;5.63;1.63;;;11.60;99.90;;;;;;5114687;28;20572;-78
2021/05/13 04:25:40;;;;;;;5.38;1.90;;;11.60;99.90;;;;;;5114860;28;20040;-77
2021/05/13 04:28:08;;;;;;;5.78;1.98;;;11.50;99.90;;;;;;5115118;28;20052;-78
2021/05/13 04:30:34;;;;;;;5.80;1.90;;;11.60;99.90;;;;;;5114825;28;20118;-77
2021/05/13 04:33:01;;;;;;;5.28;2.35;;;11.60;99.90;;;;;;5114767;28;20475;-78
2021/05/13 04:35:28;;;;;;;4.18;2.20;;;11.60;99.90;;;;;;5114488;28;20134;-78
2021/05/13 04:37:54;;;;;;;4.38;2.20;;;11.60;99.90;;;;;;5114541;28;20048;-77
2021/05/13 04:40:21;;;;;;;5.43;2.38;;;11.70;99.90;;;;;;5115056;28;20070;-78
2021/05/13 04:42:48;;;;;;;6.13;2.25;;;11.60;99.90;;;;;;5114651;28;20122;-78
2021/05/13 04:45:15;;;;;;;4.07;2.08;;;11.60;99.90;;;;;;5114374;28;20079;-78
2021/05/13 04:48:04;;;;;;;5.40;2.08;;;11.70;99.90;;;;;;5114739;28;20083;-78
2021/05/13 04:50:31;;;;;;;4.75;2.25;;;11.70;99.90;;;;;;5114265;28;20044;-78
2021/05/13 04:52:59;;;;;;;4.35;2.20;;;11.70;99.90;;;;;;5114227;28;20500;-78
2021/05/13 04:55:25;;;;;;;5.00;2.00;;;11.70;99.90;;;;;;5113909;28;20135;-78
2021/05/13 04:57:52;;;;;;;4.63;2.30;;;11.80;99.90;;;;;;5114614;28;20544;-79
2021/05/13 05:00:22;;;;;;;4.07;2.20;;;11.80;99.90;;;;;;5115153;28;20510;-78
2021/05/13 05:02:48;;;;;;;6.20;2.50;;;11.80;99.90;;;;;;5114701;28;20126;-77
2021/05/13 05:05:15;;;;;;;4.38;2.00;;;11.80;99.90;;;;;;5113730;28;20134;-78
2021/05/13 05:07:42;;;;;;;4.10;2.15;;;11.90;99.90;;;;;;5114903;28;20074;-78
2021/05/13 05:10:10;;;;;;;4.65;2.20;;;11.90;99.90;;;;;;5096373;28;20446;-79
2021/05/13 05:12:36;;;;;;;6.90;2.25;;;11.90;99.90;;;;;;5113968;28;20564;-79
2021/05/13 05:15:04;;;;;;;4.65;2.00;;;12.00;99.90;;;;;;5113976;28;20493;-79
2021/05/13 05:17:32;;;;;;;4.85;2.10;;;12.00;99.90;;;;;;5113530;28;20082;-77
2021/05/13 05:19:59;;;;;;;3.90;2.03;;;12.00;99.90;;;;;;5113535;28;20082;-77
2021/05/13 05:22:25;;;;;;;3.63;1.85;;;12.10;99.90;;;;;;5114204;28;20085;-78
2021/05/13 05:24:52;;;;;;;4.05;1.75;;;12.10;99.90;;;;;;5113931;28;20498;-78
2021/05/13 05:27:18;;;;;;;4.30;1.90;;;12.10;99.90;;;;;;5114212;28;20119;-77
2021/05/13 05:29:45;;;;;;;5.03;2.30;;;12.10;99.90;;;;;;5114293;28;20075;-78
2021/05/13 05:32:12;;;;;;;3.95;2.17;;;12.10;99.90;;;;;;5105072;28;20464;-78
2021/05/13 05:34:40;;;;;;;6.07;2.28;;;12.10;99.90;;;;;;5114051;28;20420;-77
2021/05/13 05:37:07;;;;;;;4.85;2.10;;;12.10;99.90;;;;;;5113609;28;20374;-78
2021/05/13 05:39:33;;;;;;;4.97;2.13;;;12.10;99.90;;;;;;5114123;28;20079;-77
2021/05/13 05:42:00;;;;;;;3.45;2.10;;;12.10;99.90;;;;;;5113909;28;20087;-78
2021/05/13 05:44:27;;;;;;;5.25;2.10;;;12.20;99.90;;;;;;5114143;28;20087;-76
2021/05/13 05:46:53;;;;;;;3.88;2.15;;;12.20;99.90;;;;;;5115047;28;20116;-78
2021/05/13 05:49:20;;;;;;;4.72;2.22;;;12.20;99.90;;;;;;5115948;28;20082;-77
2021/05/13 05:51:48;;;;;;;3.95;2.22;;;12.20;99.90;;;;;;5114029;28;20453;-76
2021/05/13 05:54:14;;;;;;;5.40;2.10;;;12.20;99.90;;;;;;5113416;28;20560;-78
2021/05/13 05:56:41;;;;;;;3.95;2.05;;;12.20;99.90;;;;;;5100349;28;20075;-77
2021/05/13 05:59:08;;;;;;;3.28;2.00;;;12.20;99.90;;;;;;5095758;28;20106;-77
2021/05/13 06:01:37;;;;;;;4.63;2.25;;;12.20;99.90;;;;;;5098094;28;20097;-78
2021/05/13 06:04:05;;;;;;;4.20;2.17;;;12.20;99.90;;;;;;5096308;28;20526;-77
2021/05/13 06:06:32;;;;;;;5.22;2.65;;;12.30;99.90;;;;;;5075508;28;20461;-77
2021/05/13 06:09:00;;;;;;;5.63;2.25;;;12.30;99.90;;;;;;5103107;28;20050;-77
2021/05/13 06:11:27;;;;;;;4.88;2.55;;;12.30;99.90;;;;;;5094775;28;20083;-76
2021/05/13 06:13:53;;;;;;;5.63;2.17;;;12.30;99.90;;;;;;5095973;28;20578;-79
2021/05/13 06:16:20;;;;;;;4.43;2.25;;;12.40;99.90;;;;;;5111766;28;20075;-79
2021/05/13 06:18:52;;;;;;;4.78;2.25;;;12.40;99.90;;;;;;5099165;28;20160;-78
2021/05/13 06:21:19;;;;;;;4.40;2.30;;;12.40;99.90;;;;;;5109484;28;20482;-77
2021/05/13 06:23:50;;;;;;;6.18;2.53;;;12.40;99.90;;;;;;5105525;28;20126;-78
2021/05/13 06:26:23;;;;;;;4.28;1.95;;;12.50;99.90;;;;;;5093757;28;20127;-76
2021/05/13 06:28:50;;;;;;;6.40;2.17;;;12.50;99.90;;;;;;5093559;28;20044;-76
2021/05/13 06:31:17;;;;;;;4.05;2.10;;;12.60;99.90;;;;;;5099465;28;20135;-77
2021/05/13 06:33:44;;;;;;;4.55;2.30;;;12.60;99.90;;;;;;5093751;28;20087;-77
2021/05/13 06:36:10;;;;;;;5.85;2.35;;;12.60;99.90;;;;;;5096820;28;20525;-77
2021/05/13 06:38:37;;;;;;;6.03;2.42;;;12.70;99.90;;;;;;5098308;28;20722;-77
2021/05/13 06:41:05;;;;;;;5.50;2.38;;;12.80;99.90;;;;;;5093320;28;20091;-77
2021/05/13 06:43:33;;;;;;;5.40;2.55;;;12.80;99.90;;;;;;5098206;28;20128;-77
2021/05/13 06:46:00;;;;;;;4.45;2.17;;;12.90;99.90;;;;;;5107727;28;20451;-78
2021/05/13 06:48:27;;;;;;;6.57;3.20;;;12.90;99.90;;;;;;5095966;28;20087;-78
2021/05/13 06:50:54;;;;;;;6.10;2.88;;;12.90;99.70;;;;;;5102247;28;20078;-78
2021/05/13 06:53:21;;;;;;;8.13;3.85;;;13.00;99.50;;;;;;5103075;28;20424;-78
2021/05/13 06:55:52;;;;;;;9.25;3.15;;;13.00;99.50;;;;;;5111382;28;20122;-77
2021/05/13 06:58:20;;;;;;;9.57;3.80;;;13.10;99.40;;;;;;5093062;28;20386;-77
2021/05/13 07:00:49;;;;;;;7.88;3.50;;;13.10;99.30;;;;;;5099823;28;20101;-77
2021/05/13 07:03:16;;;;;;;6.55;2.58;;;13.20;99.10;;;;;;5103025;28;20073;-76
2021/05/13 07:05:44;;;;;;;4.90;2.00;;;13.20;98.80;;;;;;5107606;28;20074;-77
2021/05/13 07:08:10;;;;;;;4.57;1.60;;;13.30;98.90;;;;;;5112357;28;20047;-75
2021/05/13 07:10:38;;;;;;;4.68;1.70;;;13.30;98.40;;;;;;5098161;28;20568;-77
2021/05/13 07:13:05;;;;;;;4.53;1.50;;;13.30;98.50;;;;;;5103325;28;20078;-78
2021/05/13 07:15:32;;;;;;;3.90;1.58;;;13.30;98.20;;;;;;5103348;28;20082;-78
2021/05/13 07:18:00;;;;;;;5.07;1.98;;;13.40;98.40;;;;;;5100251;28;20509;-78
2021/05/13 07:20:27;;;;;;;3.75;1.65;;;13.50;97.90;;;;;;5112511;28;20104;-78
2021/05/13 07:22:54;;;;;;;4.82;1.60;;;13.50;97.70;;;;;;5116214;28;20058;-77
2021/05/13 07:25:21;;;;;;;5.20;1.77;;;13.60;97.70;;;;;;5116559;28;20135;-78
2021/05/13 07:27:49;;;;;;;3.78;1.40;;;13.60;97.60;;;;;;5116011;28;20093;-77
2021/05/13 07:30:18;;;;;;;4.45;2.10;;;13.70;97.80;;;;;;5116171;28;20051;-77
2021/05/13 07:32:45;;;;;;;5.63;1.83;;;13.70;97.50;;;;;;5115798;28;20138;-78
2021/05/13 07:35:16;;;;;;;3.88;1.58;;;13.70;97.40;;;;;;5109945;27;20072;-77
2021/05/13 07:37:43;;;;;;;4.30;1.50;;;13.80;97.50;;;;;;5106061;28;20096;-77
2021/05/13 07:40:11;;;;;;;3.50;1.50;;;13.80;97.00;;;;;;5101167;28;20496;-77
2021/05/13 07:42:38;;;;;;;5.25;1.50;;;13.90;96.90;;;;;;5100258;27;20100;-78
2021/05/13 07:45:07;;;;;;;3.35;1.50;;;13.90;96.50;;;;;;5103393;28;20079;-76
2021/05/13 07:47:37;;;;;;;3.28;1.30;;;14.00;96.40;;;;;;5115228;28;20055;-78
2021/05/13 07:50:06;;;;;;;3.35;1.42;;;14.10;96.70;;;;;;5123650;28;20111;-77
2021/05/13 07:52:34;;;;;;;3.50;1.20;;;14.20;96.20;;;;;;5121398;28;20075;-76
2021/05/13 07:55:02;;;;;;;4.22;1.60;;;14.20;96.10;;;;;;5110600;28;20080;-78
2021/05/13 07:57:28;;;;;;;2.75;1.20;;;14.20;94.90;;;;;;5106301;27;20123;-78
2021/05/13 07:59:55;;;;;;;6.20;1.48;;;14.20;94.70;;;;;;5113144;28;20122;-78
2021/05/13 08:02:22;;;;;;;3.97;1.70;;;14.30;94.90;;;;;;5115537;28;20075;-78
2021/05/13 08:04:49;;;;;;;3.60;1.30;;;14.30;95.10;;;;;;5109374;28;20570;-77
2021/05/13 08:07:19;;;;;;;5.13;1.17;;;14.40;94.80;;;;;;5104135;28;20044;-78
2021/05/13 08:09:47;;;;;;;3.38;1.30;;;14.40;94.00;;;;;;5095657;28;20537;-77
2021/05/13 08:12:14;;;;;;;3.40;1.38;;;14.40;94.20;;;;;;5105202;27;20614;-78
2021/05/13 08:14:41;;;;;;;5.55;1.55;;;14.50;93.90;;;;;;5111525;27;20442;-76
2021/05/13 08:17:08;;;;;;;4.65;1.30;;;14.50;93.80;;;;;;5077672;28;20529;-77
2021/05/13 08:19:34;;;;;;;3.33;1.20;;;14.60;93.50;;;;;;5095814;28;20078;-78
2021/05/13 08:22:01;;;;;;;3.13;1.02;;;14.60;93.40;;;;;;5095426;28;20044;-77
2021/05/13 08:24:28;;;;;;;2.67;1.17;;;14.70;93.50;;;;;;5099640;28;20152;-77
2021/05/13 08:26:57;;;;;;;2.38;0.95;;;14.80;92.60;;;;;;5121611;27;20138;-78
2021/05/13 08:29:25;;;;;;;2.70;0.90;;;14.80;92.30;;;;;;5095408;28;20412;-79
2021/05/13 08:31:52;;;;;;;4.97;2.33;;;14.90;92.30;;;;;;5113599;27;20074;-78
2021/05/13 08:34:19;;;;;;;16.17;8.77;;;15.00;91.80;;;;;;5095533;28;20136;-78
2021/05/13 08:36:45;;;;;;;12.05;6.30;;;15.00;91.50;;;;;;5095327;28;20044;-78
2021/05/13 08:39:12;;;;;;;5.85;2.58;;;15.10;91.00;;;;;;5104699;28;20079;-78
2021/05/13 08:41:39;;;;;;;4.38;1.48;;;15.20;91.20;;;;;;5100620;28;20080;-78
2021/05/13 08:44:09;;;;;;;3.60;1.00;;;15.20;91.10;;;;;;5108981;27;20500;-77
2021/05/13 08:46:37;;;;;;;3.50;1.02;;;15.30;90.90;;;;;;5109419;28;20099;-76
2021/05/13 08:49:05;;;;;;;2.47;1.00;;;15.40;90.70;;;;;;5110306;28;20099;-77
2021/05/13 08:51:32;;;;;;;2.90;1.00;;;15.40;90.80;;;;;;5096383;28;20051;-76
2021/05/13 08:54:00;;;;;;;2.53;0.85;;;15.50;89.30;;;;;;5114332;28;20156;-78
2021/05/13 08:56:29;;;;;;;2.28;0.65;;;15.60;87.90;;;;;;5114838;28;20051;-76
2021/05/13 08:59:03;;;;;;;2.55;0.80;;;15.70;88.30;;;;;;5114548;28;20134;-80
2021/05/13 09:01:32;;;;;;;3.38;0.77;;;15.70;88.00;;;;;;5115047;28;20105;-77
2021/05/13 09:04:01;;;;;;;3.30;0.90;;;15.70;86.60;;;;;;5114095;28;20138;-76
2021/05/13 09:06:39;;;;;;;2.15;0.80;;;15.90;85.50;;;;;;5114528;28;20462;-77
2021/05/13 09:09:15;;;;;;;3.15;1.02;;;15.90;86.10;;;;;;5097333;28;20070;-76
2021/05/13 09:11:50;;;;;;;2.95;1.23;;;15.90;83.00;;;;;;5101397;28;20112;-78
2021/05/13 09:14:24;;;;;;;3.00;0.95;;;15.90;83.00;;;;;;5114021;28;20055;-76
2021/05/13 09:16:52;;;;;;;2.17;0.87;;;15.90;85.80;;;;;;5113707;28;20043;-77
2021/05/13 09:19:21;;;;;;;3.33;0.93;;;16.00;85.00;;;;;;5113329;28;20842;-76
2021/05/13 09:21:52;;;;;;;2.40;0.80;;;16.10;84.70;;;;;;5113828;28;20082;-78
2021/05/13 09:24:51;;;;;;;3.00;0.80;;;16.20;85.10;;;;;;5113886;28;20494;-77
2021/05/13 09:27:22;;;;;;;3.80;0.85;;;16.30;85.00;;;;;;5113936;28;20120;-78
2021/05/13 09:30:07;;;;;;;2.53;0.88;;;16.50;84.40;;;;;;5113574;28;20113;-78
2021/05/13 09:32:36;;;;;;;2.33;0.80;;;16.60;82.70;;;;;;5113312;28;20054;-79
2021/05/13 09:35:10;;;;;;;1.95;0.82;;;16.60;83.20;;;;;;5107412;28;20644;-79
2021/05/13 09:37:42;;;;;;;2.30;0.90;;;16.70;83.50;;;;;;5102086;28;20048;-79
2021/05/13 09:40:11;;;;;;;4.13;0.70;;;16.80;82.80;;;;;;5111318;27;20368;-79
2021/05/13 09:42:39;;;;;;;3.75;0.90;;;16.80;82.60;;;;;;5092627;28;20078;-79
2021/05/13 09:45:09;;;;;;;2.20;0.80;;;16.80;82.10;;;;;;5102623;28;20408;-78
2021/05/13 09:47:38;;;;;;;2.97;0.80;;;16.90;82.50;;;;;;5111702;28;20552;-78
2021/05/13 09:50:14;;;;;;;2.45;1.00;;;16.90;82.00;;;;;;5102549;28;20134;-78
2021/05/13 09:52:51;;;;;;;3.20;1.15;;;17.00;80.90;;;;;;5102387;27;20390;-78
2021/05/13 09:55:30;;;;;;;2.45;0.95;;;17.10;81.10;;;;;;5099142;28;20086;-76
2021/05/13 09:58:05;;;;;;;3.08;1.00;;;17.10;77.60;;;;;;5112419;27;20559;-76
2021/05/13 10:00:43;;;;;;;3.10;0.90;;;16.90;77.10;;;;;;5097092;28;20047;-78
2021/05/13 10:03:14;;;;;;;2.38;0.82;;;16.90;78.40;;;;;;5102676;28;20532;-80
2021/05/13 10:05:44;;;;;;;3.30;1.10;;;16.90;78.70;;;;;;5093109;28;20558;-78
2021/05/13 10:08:13;;;;;;;4.15;1.20;;;17.00;80.50;;;;;;5120806;28;20070;-78
2021/05/13 10:10:41;;;;;;;3.22;0.82;;;17.10;77.60;;;;;;5093604;28;20079;-78
2021/05/13 10:13:10;;;;;;;4.65;0.90;;;17.20;77.60;;;;;;5094106;28;20075;-78
2021/05/13 10:15:39;;;;;;;2.10;0.80;;;17.30;77.70;;;;;;5108431;28;20134;-76
2021/05/13 10:18:19;;;;;;;2.80;0.80;;;17.40;77.50;;;;;;5108441;28;20107;-77
2021/05/13 10:20:53;;;;;;;1.90;0.77;;;17.40;75.20;;;;;;5096096;28;20071;-76
2021/05/13 10:23:20;;;;;;;2.67;1.00;;;17.50;75.50;;;;;;5113270;28;20438;-78
2021/05/13 10:25:48;;;;;;;2.63;1.00;;;17.50;75.40;;;;;;5113779;28;20090;-77
2021/05/13 10:28:14;;;;;;;2.58;0.70;;;17.70;74.60;;;;;;5113404;28;20097;-77
2021/05/13 10:30:41;;;;;;;2.53;0.80;;;17.80;71.90;;;;;;5113453;28;20473;-78
2021/05/13 10:33:16;;;;;;;3.42;0.77;;;17.80;71.20;;;;;;5113772;28;20484;-79
2021/05/13 10:36:17;;;;;;;3.47;1.10;;;17.80;70.20;;;;;;5113914;28;20550;-77
2021/05/13 10:38:51;;;;;;;4.10;1.33;;;17.70;71.30;;;;;;5071289;28;20133;-79
2021/05/13 10:41:40;;;;;;;2.35;0.82;;;17.70;72.40;;;;;;5071459;28;20041;-78
2021/05/13 10:44:36;;;;;;;3.20;1.00;;;17.60;71.50;;;;;;5099732;28;20078;-79
2021/05/13 10:47:06;;;;;;;3.55;1.20;;;17.60;71.90;;;;;;5113159;28;20469;-78
2021/05/13 10:49:46;;;;;;;3.35;1.02;;;17.50;71.50;;;;;;5097839;28;20054;-78
2021/05/13 10:52:40;;;;;;;2.00;0.70;;;17.40;71.30;;;;;;5114077;28;20542;-77
2021/05/13 10:55:09;;;;;;;;;;;17.40;73.40;;;;;;5119637;28;20051;-77
2021/05/13 10:57:51;;;;;;;3.00;1.20;;;17.40;74.30;;;;;;5099202;28;19966;-76
2021/05/13 11:00:28;;;;;;;4.28;1.65;;;17.50;75.50;;;;;;5116755;28;20600;-76
2021/05/13 11:02:55;;;;;;;4.88;1.23;;;17.70;75.60;;;;;;5118641;28;20475;-84
2021/05/13 11:05:43;;;;;;;3.03;1.10;;;17.80;75.70;;;;;;5118244;28;20055;-82
2021/05/13 11:08:42;;;;;;;6.20;1.60;;;17.80;75.10;;;;;;5118929;28;20112;-83
2021/05/13 11:11:09;;;;;;;2.90;1.20;;;17.80;74.70;;;;;;5119421;28;20047;-80
2021/05/13 11:13:41;;;;;;;5.28;1.58;;;17.70;76.20;;;;;;5118295;28;20086;-79
2021/05/13 11:16:41;;;;;;;3.55;1.13;;;17.80;75.80;;;;;;5118210;28;20081;-79
2021/05/13 11:19:23;;;;;;;4.05;1.17;;;17.70;75.80;;;;;;5117162;28;20127;-80
2021/05/13 11:22:05;;;;;;;3.50;0.90;;;17.50;74.00;;;;;;5116690;28;20092;-81
2021/05/13 11:24:42;;;;;;;2.63;0.88;;;17.50;76.40;;;;;;5101830;28;20449;-79
2021/05/13 11:27:11;;;;;;;3.15;0.90;;;17.40;74.00;;;;;;5116486;28;20514;-79
2021/05/13 11:29:53;;;;;;;3.15;1.15;;;17.30;76.00;;;;;;5116314;28;20036;-81
2021/05/13 11:32:21;;;;;;;3.17;0.90;;;17.20;75.40;;;;;;5116702;28;20074;-80
2021/05/13 11:34:48;;;;;;;3.03;0.90;;;17.20;75.90;;;;;;5116334;28;20063;-81
2021/05/13 11:37:38;;;;;;;5.35;0.90;;;17.20;74.70;;;;;;5116593;28;20044;-78
2021/05/13 11:40:32;;;;;;;3.35;1.10;;;17.10;75.40;;;;;;5116470;28;20083;-80
2021/05/13 11:43:17;;;;;;;2.88;0.93;;;17.10;70.90;;;;;;5091699;28;20562;-77
2021/05/13 11:45:44;;;;;;;2.97;0.80;;;17.00;69.30;;;;;;5116820;28;20052;-79
2021/05/13 11:48:37;;;;;;;1.52;0.55;;;17.00;70.00;;;;;;5116124;28;20051;-79
2021/05/13 11:51:07;;;;;;;1.90;0.60;;;16.90;70.20;;;;;;5116663;28;20057;-77
2021/05/13 11:53:35;;;;;;;2.00;0.65;;;16.80;69.00;;;;;;5104850;28;20126;-80
2021/05/13 11:56:05;;;;;;;3.33;0.65;;;16.70;69.60;;;;;;5115930;28;20185;-78
2021/05/13 11:58:46;;;;;;;2.35;0.70;;;16.60;70.30;;;;;;5115247;28;20434;-78
2021/05/13 12:01:22;;;;;;;2.38;0.80;;;16.60;68.90;;;;;;5116100;28;20048;-78
2021/05/13 12:03:58;;;;;;;2.58;0.65;;;16.60;70.40;;;;;;5115995;28;20132;-78
2021/05/13 12:06:25;;;;;;;3.35;1.17;;;16.60;70.30;;;;;;5109277;28;20485;-78
2021/05/13 12:08:52;;;;;;;4.03;1.55;;;16.60;70.50;;;;;;5115646;28;20163;-78
2021/05/13 12:11:25;;;;;;;3.83;0.75;;;16.60;68.10;;;;;;5115100;28;20075;-78
2021/05/13 12:13:54;;;;;;;1.17;0.40;;;16.60;68.70;;;;;;5115769;27;20044;-78
2021/05/13 12:16:23;;;;;;;2.38;0.80;;;16.50;69.40;;;;;;5106935;28;20071;-77
2021/05/13 12:18:54;;;;;;;1.73;0.60;;;16.50;70.00;;;;;;5111079;28;20055;-79
2021/05/13 12:21:21;;;;;;;1.80;0.50;;;16.60;69.90;;;;;;5115564;28;20071;-77
2021/05/13 12:23:49;;;;;;;2.70;0.70;;;16.60;70.70;;;;;;5115331;28;20481;-79
2021/05/13 12:26:23;;;;;;;1.98;0.60;;;16.60;68.50;;;;;;5114251;28;20090;-78
2021/05/13 12:28:51;;;;;;;1.73;0.60;;;16.60;68.50;;;;;;5113797;28;20079;-78
2021/05/13 12:31:25;;;;;;;1.70;0.60;;;16.60;68.00;;;;;;5111859;28;20127;-78
2021/05/13 12:33:53;;;;;;;2.17;0.55;;;16.60;68.60;;;;;;5112614;28;20086;-78
2021/05/13 12:36:20;;;;;;;1.75;0.60;;;16.70;68.80;;;;;;5093627;28;20520;-78
2021/05/13 12:38:47;;;;;;;1.27;0.47;;;16.80;69.00;;;;;;5111863;28;20063;-78
2021/05/13 12:41:16;;;;;;;1.73;0.52;;;16.90;68.60;;;;;;5111977;28;20108;-79
2021/05/13 12:43:45;;;;;;;2.10;0.60;;;16.90;69.00;;;;;;5111789;28;20083;-77
2021/05/13 12:46:21;;;;;;;1.77;0.52;;;17.00;70.60;;;;;;5111600;28;20059;-77
2021/05/13 12:48:49;;;;;;;1.77;0.55;;;17.20;69.90;;;;;;5112057;28;20087;-78
2021/05/13 12:51:21;;;;;;;1.25;0.50;;;17.30;67.50;;;;;;5112186;28;20048;-78
2021/05/13 12:53:53;;;;;;;2.83;0.60;;;17.30;68.00;;;;;;5111999;28;20097;-78
2021/05/13 12:56:30;;;;;;;1.58;0.65;;;17.40;66.80;;;;;;5110707;28;20442;-77
2021/05/13 12:59:10;;;;;;;1.48;0.50;;;17.50;67.00;;;;;;5100778;28;20039;-78
2021/05/13 13:01:39;;;;;;;1.27;0.57;;;17.70;63.40;;;;;;5111577;28;20081;-79